sensor_id;sensor_type;location;lat;lon;timestamp;P1;durP1;ratioP1;P2;durP2;ratioP2
21148;SDS011;10732;51.472;6.466;2024-02-26T00:02:20;8.35;;;3.20;;
21148;SDS011;10732;51.472;6.466;2024-02-26T00:04:45;5.68;;;2.92;;
21148;SDS011;10732;51.472;6.466;2024-02-26T00:07:11;6.65;;;3.35;;
21148;SDS011;10732;51.472;6.466;2024-02-26T00:09:37;6.18;;;3.47;;
21148;SDS011;10732;51.472;6.466;2024-02-26T00:12:03;4.93;;;3.20;;
21148;SDS011;10732;51.472;6.466;2024-02-26T00:14:29;7.68;;;4.10;;
21148;SDS011;10732;51.472;6.466;2024-02-26T00:16:55;10.18;;;3.88;;
21148;SDS011;10732;51.472;6.466;2024-02-26T00:19:21;7.68;;;3.50;;
21148;SDS011;10732;51.472;6.466;2024-02-26T00:21:46;6.10;;;3.42;;
21148;SDS011;10732;51.472;6.466;2024-02-26T00:24:12;6.15;;;3.45;;
21148;SDS011;10732;51.472;6.466;2024-02-26T00:26:38;6.35;;;2.70;;
21148;SDS011;10732;51.472;6.466;2024-02-26T00:29:04;6.90;;;3.30;;
21148;SDS011;10732;51.472;6.466;2024-02-26T00:31:29;4.30;;;3.20;;
21148;SDS011;10732;51.472;6.466;2024-02-26T00:33:55;5.35;;;2.85;;
21148;SDS011;10732;51.472;6.466;2024-02-26T00:36:24;5.35;;;2.85;;
21148;SDS011;10732;51.472;6.466;2024-02-26T00:38:49;6.50;;;3.13;;
21148;SDS011;10732;51.472;6.466;2024-02-26T00:41:18;5.22;;;2.70;;
21148;SDS011;10732;51.472;6.466;2024-02-26T00:43:44;5.55;;;3.20;;
21148;SDS011;10732;51.472;6.466;2024-02-26T00:46:09;4.93;;;2.58;;
21148;SDS011;10732;51.472;6.466;2024-02-26T00:48:35;6.00;;;2.53;;
21148;SDS011;10732;51.472;6.466;2024-02-26T00:51:02;4.78;;;2.78;;
21148;SDS011;10732;51.472;6.466;2024-02-26T00:53:30;6.10;;;3.10;;
21148;SDS011;10732;51.472;6.466;2024-02-26T00:55:56;5.70;;;2.55;;
21148;SDS011;10732;51.472;6.466;2024-02-26T00:58:23;6.82;;;3.30;;
21148;SDS011;10732;51.472;6.466;2024-02-26T01:00:49;5.82;;;3.10;;
21148;SDS011;10732;51.472;6.466;2024-02-26T01:03:15;6.55;;;3.78;;
21148;SDS011;10732;51.472;6.466;2024-02-26T01:05:40;9.00;;;3.95;;
21148;SDS011;10732;51.472;6.466;2024-02-26T01:08:06;11.32;;;4.90;;
21148;SDS011;10732;51.472;6.466;2024-02-26T01:10:31;9.05;;;4.70;;
21148;SDS011;10732;51.472;6.466;2024-02-26T01:12:57;9.35;;;4.57;;
21148;SDS011;10732;51.472;6.466;2024-02-26T01:15:22;10.20;;;5.20;;
21148;SDS011;10732;51.472;6.466;2024-02-26T01:17:49;8.85;;;5.00;;
21148;SDS011;10732;51.472;6.466;2024-02-26T01:20:15;8.15;;;4.28;;
21148;SDS011;10732;51.472;6.466;2024-02-26T01:22:42;8.75;;;4.65;;
21148;SDS011;10732;51.472;6.466;2024-02-26T01:25:08;9.32;;;4.78;;
21148;SDS011;10732;51.472;6.466;2024-02-26T01:27:34;11.63;;;4.85;;
21148;SDS011;10732;51.472;6.466;2024-02-26T01:30:02;11.25;;;4.82;;
21148;SDS011;10732;51.472;6.466;2024-02-26T01:32:29;10.63;;;4.90;;
21148;SDS011;10732;51.472;6.466;2024-02-26T01:34:55;10.38;;;4.95;;
21148;SDS011;10732;51.472;6.466;2024-02-26T01:37:20;13.93;;;5.05;;
21148;SDS011;10732;51.472;6.466;2024-02-26T01:39:46;9.95;;;4.43;;
21148;SDS011;10732;51.472;6.466;2024-02-26T01:42:11;9.77;;;4.47;;
21148;SDS011;10732;51.472;6.466;2024-02-26T01:44:37;6.38;;;3.88;;
21148;SDS011;10732;51.472;6.466;2024-02-26T01:47:03;6.65;;;3.60;;
21148;SDS011;10732;51.472;6.466;2024-02-26T01:49:33;8.27;;;4.25;;
21148;SDS011;10732;51.472;6.466;2024-02-26T01:52:00;5.55;;;3.78;;
21148;SDS011;10732;51.472;6.466;2024-02-26T01:54:26;7.28;;;4.28;;
21148;SDS011;10732;51.472;6.466;2024-02-26T01:56:52;6.75;;;3.78;;
21148;SDS011;10732;51.472;6.466;2024-02-26T01:59:19;7.85;;;3.70;;
21148;SDS011;10732;51.472;6.466;2024-02-26T02:01:45;4.78;;;3.40;;
21148;SDS011;10732;51.472;6.466;2024-02-26T02:04:17;7.47;;;4.38;;
21148;SDS011;10732;51.472;6.466;2024-02-26T02:06:43;7.38;;;4.05;;
21148;SDS011;10732;51.472;6.466;2024-02-26T02:09:11;7.18;;;3.60;;
21148;SDS011;10732;51.472;6.466;2024-02-26T02:11:37;6.68;;;3.35;;
21148;SDS011;10732;51.472;6.466;2024-02-26T02:14:03;8.60;;;3.55;;
21148;SDS011;10732;51.472;6.466;2024-02-26T02:16:28;8.25;;;3.50;;
21148;SDS011;10732;51.472;6.466;2024-02-26T02:18:54;6.63;;;3.90;;
21148;SDS011;10732;51.472;6.466;2024-02-26T02:21:20;7.20;;;3.78;;
21148;SDS011;10732;51.472;6.466;2024-02-26T02:23:45;7.53;;;3.33;;
21148;SDS011;10732;51.472;6.466;2024-02-26T02:26:12;6.35;;;3.63;;
21148;SDS011;10732;51.472;6.466;2024-02-26T02:28:38;6.00;;;3.22;;
21148;SDS011;10732;51.472;6.466;2024-02-26T02:31:05;7.18;;;3.08;;
21148;SDS011;10732;51.472;6.466;2024-02-26T02:33:31;5.13;;;2.92;;
21148;SDS011;10732;51.472;6.466;2024-02-26T02:35:57;5.22;;;3.20;;
21148;SDS011;10732;51.472;6.466;2024-02-26T02:38:24;4.53;;;2.92;;
21148;SDS011;10732;51.472;6.466;2024-02-26T02:40:51;4.78;;;2.70;;
21148;SDS011;10732;51.472;6.466;2024-02-26T02:43:17;4.45;;;2.80;;
21148;SDS011;10732;51.472;6.466;2024-02-26T02:45:42;4.55;;;3.03;;
21148;SDS011;10732;51.472;6.466;2024-02-26T02:48:08;3.97;;;2.60;;
21148;SDS011;10732;51.472;6.466;2024-02-26T02:50:33;4.78;;;2.67;;
21148;SDS011;10732;51.472;6.466;2024-02-26T02:52:59;3.33;;;2.80;;
21148;SDS011;10732;51.472;6.466;2024-02-26T02:55:25;5.43;;;2.60;;
21148;SDS011;10732;51.472;6.466;2024-02-26T02:57:50;3.13;;;2.55;;
21148;SDS011;10732;51.472;6.466;2024-02-26T03:00:16;5.72;;;2.90;;
21148;SDS011;10732;51.472;6.466;2024-02-26T03:02:42;3.80;;;2.95;;
21148;SDS011;10732;51.472;6.466;2024-02-26T03:05:09;3.78;;;2.85;;
21148;SDS011;10732;51.472;6.466;2024-02-26T03:07:35;4.50;;;2.50;;
21148;SDS011;10732;51.472;6.466;2024-02-26T03:10:01;5.07;;;2.70;;
21148;SDS011;10732;51.472;6.466;2024-02-26T03:12:27;3.58;;;2.70;;
21148;SDS011;10732;51.472;6.466;2024-02-26T03:14:53;3.03;;;2.63;;
21148;SDS011;10732;51.472;6.466;2024-02-26T03:17:19;3.42;;;2.72;;
21148;SDS011;10732;51.472;6.466;2024-02-26T03:19:46;3.50;;;2.70;;
21148;SDS011;10732;51.472;6.466;2024-02-26T03:22:12;3.55;;;2.42;;
21148;SDS011;10732;51.472;6.466;2024-02-26T03:24:38;3.22;;;2.47;;
21148;SDS011;10732;51.472;6.466;2024-02-26T03:27:04;3.08;;;2.58;;
21148;SDS011;10732;51.472;6.466;2024-02-26T03:29:34;4.88;;;2.60;;
21148;SDS011;10732;51.472;6.466;2024-02-26T03:32:00;3.55;;;2.83;;
21148;SDS011;10732;51.472;6.466;2024-02-26T03:34:26;5.30;;;2.75;;
21148;SDS011;10732;51.472;6.466;2024-02-26T03:36:52;4.43;;;2.70;;
21148;SDS011;10732;51.472;6.466;2024-02-26T03:39:17;4.95;;;2.50;;
21148;SDS011;10732;51.472;6.466;2024-02-26T03:41:43;4.35;;;2.75;;
21148;SDS011;10732;51.472;6.466;2024-02-26T03:44:09;2.97;;;2.38;;
21148;SDS011;10732;51.472;6.466;2024-02-26T03:46:34;3.80;;;2.85;;
21148;SDS011;10732;51.472;6.466;2024-02-26T03:49:00;3.47;;;2.75;;
21148;SDS011;10732;51.472;6.466;2024-02-26T03:51:26;3.35;;;3.05;;
21148;SDS011;10732;51.472;6.466;2024-02-26T03:53:56;3.67;;;2.80;;
21148;SDS011;10732;51.472;6.466;2024-02-26T03:56:22;3.42;;;2.75;;
21148;SDS011;10732;51.472;6.466;2024-02-26T03:58:48;3.42;;;2.85;;
21148;SDS011;10732;51.472;6.466;2024-02-26T04:01:13;4.22;;;3.15;;
21148;SDS011;10732;51.472;6.466;2024-02-26T04:03:39;3.45;;;2.92;;
21148;SDS011;10732;51.472;6.466;2024-02-26T04:06:08;5.35;;;3.30;;
21148;SDS011;10732;51.472;6.466;2024-02-26T04:08:34;3.72;;;3.10;;
21148;SDS011;10732;51.472;6.466;2024-02-26T04:11:00;4.88;;;3.35;;
21148;SDS011;10732;51.472;6.466;2024-02-26T04:13:25;4.20;;;3.20;;
21148;SDS011;10732;51.472;6.466;2024-02-26T04:15:51;3.25;;;2.92;;
21148;SDS011;10732;51.472;6.466;2024-02-26T04:18:16;4.38;;;2.92;;
21148;SDS011;10732;51.472;6.466;2024-02-26T04:20:42;3.78;;;3.17;;
21148;SDS011;10732;51.472;6.466;2024-02-26T04:23:07;4.45;;;3.60;;
21148;SDS011;10732;51.472;6.466;2024-02-26T04:25:33;3.58;;;3.13;;
21148;SDS011;10732;51.472;6.466;2024-02-26T04:27:59;3.38;;;3.08;;
21148;SDS011;10732;51.472;6.466;2024-02-26T04:30:25;3.85;;;3.30;;
21148;SDS011;10732;51.472;6.466;2024-02-26T04:32:50;3.88;;;3.42;;
21148;SDS011;10732;51.472;6.466;2024-02-26T04:35:16;4.13;;;3.15;;
21148;SDS011;10732;51.472;6.466;2024-02-26T04:37:42;3.33;;;3.00;;
21148;SDS011;10732;51.472;6.466;2024-02-26T04:40:08;3.70;;;3.10;;
21148;SDS011;10732;51.472;6.466;2024-02-26T04:42:33;3.88;;;3.00;;
21148;SDS011;10732;51.472;6.466;2024-02-26T04:44:59;3.88;;;2.90;;
21148;SDS011;10732;51.472;6.466;2024-02-26T04:47:25;4.68;;;3.40;;
21148;SDS011;10732;51.472;6.466;2024-02-26T04:49:50;3.92;;;2.92;;
21148;SDS011;10732;51.472;6.466;2024-02-26T04:52:16;3.17;;;2.90;;
21148;SDS011;10732;51.472;6.466;2024-02-26T04:54:43;3.22;;;2.90;;
21148;SDS011;10732;51.472;6.466;2024-02-26T04:57:09;3.20;;;2.90;;
21148;SDS011;10732;51.472;6.466;2024-02-26T04:59:34;4.07;;;2.63;;
21148;SDS011;10732;51.472;6.466;2024-02-26T05:02:00;3.53;;;2.85;;
21148;SDS011;10732;51.472;6.466;2024-02-26T05:04:25;3.65;;;2.95;;
21148;SDS011;10732;51.472;6.466;2024-02-26T05:06:51;4.90;;;2.75;;
21148;SDS011;10732;51.472;6.466;2024-02-26T05:09:18;4.28;;;3.50;;
21148;SDS011;10732;51.472;6.466;2024-02-26T05:11:44;3.25;;;2.95;;
21148;SDS011;10732;51.472;6.466;2024-02-26T05:14:09;4.13;;;3.38;;
21148;SDS011;10732;51.472;6.466;2024-02-26T05:16:35;4.10;;;3.40;;
21148;SDS011;10732;51.472;6.466;2024-02-26T05:19:01;3.90;;;3.50;;
21148;SDS011;10732;51.472;6.466;2024-02-26T05:21:26;4.15;;;3.47;;
21148;SDS011;10732;51.472;6.466;2024-02-26T05:23:52;4.45;;;3.25;;
21148;SDS011;10732;51.472;6.466;2024-02-26T05:26:21;4.43;;;3.50;;
21148;SDS011;10732;51.472;6.466;2024-02-26T05:28:48;4.25;;;3.55;;
21148;SDS011;10732;51.472;6.466;2024-02-26T05:31:14;5.72;;;3.60;;
21148;SDS011;10732;51.472;6.466;2024-02-26T05:33:40;4.40;;;3.65;;
21148;SDS011;10732;51.472;6.466;2024-02-26T05:36:06;4.07;;;3.67;;
21148;SDS011;10732;51.472;6.466;2024-02-26T05:38:31;4.30;;;3.63;;
21148;SDS011;10732;51.472;6.466;2024-02-26T05:40:57;4.50;;;3.80;;
21148;SDS011;10732;51.472;6.466;2024-02-26T05:43:24;4.60;;;3.35;;
21148;SDS011;10732;51.472;6.466;2024-02-26T05:45:50;4.93;;;4.00;;
21148;SDS011;10732;51.472;6.466;2024-02-26T05:48:16;4.55;;;4.10;;
21148;SDS011;10732;51.472;6.466;2024-02-26T05:50:41;6.22;;;4.20;;
21148;SDS011;10732;51.472;6.466;2024-02-26T05:53:07;4.75;;;4.05;;
21148;SDS011;10732;51.472;6.466;2024-02-26T05:55:32;4.30;;;3.90;;
21148;SDS011;10732;51.472;6.466;2024-02-26T05:57:58;4.80;;;3.75;;
21148;SDS011;10732;51.472;6.466;2024-02-26T06:00:23;4.13;;;3.72;;
21148;SDS011;10732;51.472;6.466;2024-02-26T06:02:49;4.47;;;4.07;;
21148;SDS011;10732;51.472;6.466;2024-02-26T06:05:14;4.88;;;4.07;;
21148;SDS011;10732;51.472;6.466;2024-02-26T06:07:40;5.18;;;4.22;;
21148;SDS011;10732;51.472;6.466;2024-02-26T06:10:06;4.82;;;4.03;;
21148;SDS011;10732;51.472;6.466;2024-02-26T06:12:34;6.00;;;3.88;;
21148;SDS011;10732;51.472;6.466;2024-02-26T06:15:00;7.00;;;4.25;;
21148;SDS011;10732;51.472;6.466;2024-02-26T06:17:26;5.30;;;4.65;;
21148;SDS011;10732;51.472;6.466;2024-02-26T06:19:52;4.85;;;4.25;;
21148;SDS011;10732;51.472;6.466;2024-02-26T06:22:18;5.70;;;4.60;;
21148;SDS011;10732;51.472;6.466;2024-02-26T06:24:43;4.90;;;4.40;;
21148;SDS011;10732;51.472;6.466;2024-02-26T06:27:09;6.80;;;4.63;;
21148;SDS011;10732;51.472;6.466;2024-02-26T06:29:35;5.75;;;4.35;;
21148;SDS011;10732;51.472;6.466;2024-02-26T06:32:00;5.18;;;4.47;;
21148;SDS011;10732;51.472;6.466;2024-02-26T06:34:26;4.93;;;4.43;;
21148;SDS011;10732;51.472;6.466;2024-02-26T06:36:51;4.63;;;4.10;;
21148;SDS011;10732;51.472;6.466;2024-02-26T06:39:17;6.90;;;4.20;;
21148;SDS011;10732;51.472;6.466;2024-02-26T06:41:43;5.70;;;4.35;;
21148;SDS011;10732;51.472;6.466;2024-02-26T06:44:11;5.60;;;4.80;;
21148;SDS011;10732;51.472;6.466;2024-02-26T06:46:38;5.18;;;4.15;;
21148;SDS011;10732;51.472;6.466;2024-02-26T06:49:04;5.75;;;5.05;;
21148;SDS011;10732;51.472;6.466;2024-02-26T06:51:30;6.30;;;4.63;;
21148;SDS011;10732;51.472;6.466;2024-02-26T06:53:56;5.50;;;4.80;;
21148;SDS011;10732;51.472;6.466;2024-02-26T06:56:21;4.85;;;4.35;;
21148;SDS011;10732;51.472;6.466;2024-02-26T06:58:47;7.60;;;4.57;;
21148;SDS011;10732;51.472;6.466;2024-02-26T07:01:12;5.63;;;4.32;;
21148;SDS011;10732;51.472;6.466;2024-02-26T07:03:40;6.47;;;4.45;;
21148;SDS011;10732;51.472;6.466;2024-02-26T07:06:06;4.97;;;4.45;;
21148;SDS011;10732;51.472;6.466;2024-02-26T07:08:31;5.80;;;4.78;;
21148;SDS011;10732;51.472;6.466;2024-02-26T07:10:57;5.43;;;4.78;;
21148;SDS011;10732;51.472;6.466;2024-02-26T07:13:23;6.78;;;4.90;;
21148;SDS011;10732;51.472;6.466;2024-02-26T07:15:48;6.82;;;5.03;;
21148;SDS011;10732;51.472;6.466;2024-02-26T07:18:14;6.28;;;5.00;;
21148;SDS011;10732;51.472;6.466;2024-02-26T07:20:39;7.07;;;5.20;;
21148;SDS011;10732;51.472;6.466;2024-02-26T07:23:05;5.85;;;4.82;;
21148;SDS011;10732;51.472;6.466;2024-02-26T07:25:31;6.82;;;4.82;;
21148;SDS011;10732;51.472;6.466;2024-02-26T07:27:57;5.53;;;5.03;;
21148;SDS011;10732;51.472;6.466;2024-02-26T07:30:23;6.00;;;5.10;;
21148;SDS011;10732;51.472;6.466;2024-02-26T07:32:49;5.30;;;4.57;;
21148;SDS011;10732;51.472;6.466;2024-02-26T07:35:15;5.70;;;4.53;;
21148;SDS011;10732;51.472;6.466;2024-02-26T07:37:42;6.05;;;4.82;;
21148;SDS011;10732;51.472;6.466;2024-02-26T07:40:08;5.72;;;3.85;;
21148;SDS011;10732;51.472;6.466;2024-02-26T07:42:34;6.55;;;4.45;;
21148;SDS011;10732;51.472;6.466;2024-02-26T07:45:00;6.57;;;4.38;;
21148;SDS011;10732;51.472;6.466;2024-02-26T07:47:26;4.53;;;3.75;;
21148;SDS011;10732;51.472;6.466;2024-02-26T07:49:52;5.38;;;4.32;;
21148;SDS011;10732;51.472;6.466;2024-02-26T07:52:18;5.55;;;4.18;;
21148;SDS011;10732;51.472;6.466;2024-02-26T07:54:43;4.40;;;3.92;;
21148;SDS011;10732;51.472;6.466;2024-02-26T07:57:09;4.22;;;3.80;;
21148;SDS011;10732;51.472;6.466;2024-02-26T07:59:34;4.18;;;3.78;;
21148;SDS011;10732;51.472;6.466;2024-02-26T08:02:00;5.18;;;4.00;;
21148;SDS011;10732;51.472;6.466;2024-02-26T08:04:28;5.10;;;3.95;;
21148;SDS011;10732;51.472;6.466;2024-02-26T08:06:54;5.22;;;4.55;;
21148;SDS011;10732;51.472;6.466;2024-02-26T08:09:19;5.50;;;4.13;;
21148;SDS011;10732;51.472;6.466;2024-02-26T08:11:45;5.75;;;4.80;;
21148;SDS011;10732;51.472;6.466;2024-02-26T08:14:10;5.35;;;3.80;;
21148;SDS011;10732;51.472;6.466;2024-02-26T08:16:36;4.35;;;3.80;;
21148;SDS011;10732;51.472;6.466;2024-02-26T08:19:01;5.97;;;4.25;;
21148;SDS011;10732;51.472;6.466;2024-02-26T08:21:27;4.65;;;3.63;;
21148;SDS011;10732;51.472;6.466;2024-02-26T08:23:53;3.90;;;3.50;;
21148;SDS011;10732;51.472;6.466;2024-02-26T08:26:18;5.55;;;3.60;;
21148;SDS011;10732;51.472;6.466;2024-02-26T08:28:45;5.43;;;3.70;;
21148;SDS011;10732;51.472;6.466;2024-02-26T08:31:12;4.70;;;3.60;;
21148;SDS011;10732;51.472;6.466;2024-02-26T08:33:38;4.25;;;3.85;;
21148;SDS011;10732;51.472;6.466;2024-02-26T08:36:04;5.10;;;4.60;;
21148;SDS011;10732;51.472;6.466;2024-02-26T08:38:30;5.22;;;4.25;;
21148;SDS011;10732;51.472;6.466;2024-02-26T08:40:56;4.00;;;3.60;;
21148;SDS011;10732;51.472;6.466;2024-02-26T08:43:21;5.20;;;4.00;;
21148;SDS011;10732;51.472;6.466;2024-02-26T08:45:47;4.55;;;3.80;;
21148;SDS011;10732;51.472;6.466;2024-02-26T08:48:12;5.78;;;4.10;;
21148;SDS011;10732;51.472;6.466;2024-02-26T08:50:38;4.75;;;3.92;;
21148;SDS011;10732;51.472;6.466;2024-02-26T08:53:03;5.68;;;3.85;;
21148;SDS011;10732;51.472;6.466;2024-02-26T08:55:30;6.38;;;4.32;;
21148;SDS011;10732;51.472;6.466;2024-02-26T08:57:56;5.18;;;3.80;;
21148;SDS011;10732;51.472;6.466;2024-02-26T09:00:21;5.28;;;4.40;;
21148;SDS011;10732;51.472;6.466;2024-02-26T09:02:47;4.95;;;4.50;;
21148;SDS011;10732;51.472;6.466;2024-02-26T09:05:14;5.13;;;4.30;;
21148;SDS011;10732;51.472;6.466;2024-02-26T09:07:39;4.40;;;4.00;;
21148;SDS011;10732;51.472;6.466;2024-02-26T09:10:05;4.78;;;4.00;;
21148;SDS011;10732;51.472;6.466;2024-02-26T09:12:34;5.72;;;4.35;;
21148;SDS011;10732;51.472;6.466;2024-02-26T09:14:59;6.35;;;4.30;;
21148;SDS011;10732;51.472;6.466;2024-02-26T09:17:25;8.90;;;3.83;;
21148;SDS011;10732;51.472;6.466;2024-02-26T09:19:50;4.93;;;3.80;;
21148;SDS011;10732;51.472;6.466;2024-02-26T09:22:16;4.57;;;4.00;;
21148;SDS011;10732;51.472;6.466;2024-02-26T09:24:41;4.43;;;3.85;;
21148;SDS011;10732;51.472;6.466;2024-02-26T09:27:07;5.38;;;4.13;;
21148;SDS011;10732;51.472;6.466;2024-02-26T09:29:34;5.40;;;4.18;;
21148;SDS011;10732;51.472;6.466;2024-02-26T09:32:00;6.38;;;4.38;;
21148;SDS011;10732;51.472;6.466;2024-02-26T09:34:26;6.22;;;4.00;;
21148;SDS011;10732;51.472;6.466;2024-02-26T09:36:51;4.60;;;4.10;;
21148;SDS011;10732;51.472;6.466;2024-02-26T09:39:17;4.88;;;4.20;;
21148;SDS011;10732;51.472;6.466;2024-02-26T09:41:46;5.88;;;4.18;;
21148;SDS011;10732;51.472;6.466;2024-02-26T09:44:14;6.70;;;4.95;;
21148;SDS011;10732;51.472;6.466;2024-02-26T09:46:48;6.47;;;4.22;;
21148;SDS011;10732;51.472;6.466;2024-02-26T09:49:16;5.28;;;4.10;;
21148;SDS011;10732;51.472;6.466;2024-02-26T09:51:44;4.32;;;3.83;;
21148;SDS011;10732;51.472;6.466;2024-02-26T09:54:12;4.50;;;4.10;;
21148;SDS011;10732;51.472;6.466;2024-02-26T09:56:39;5.75;;;3.83;;
21148;SDS011;10732;51.472;6.466;2024-02-26T09:59:06;6.57;;;4.13;;
21148;SDS011;10732;51.472;6.466;2024-02-26T10:01:40;6.63;;;4.15;;
21148;SDS011;10732;51.472;6.466;2024-02-26T10:04:07;5.28;;;4.63;;
21148;SDS011;10732;51.472;6.466;2024-02-26T10:06:34;6.75;;;4.78;;
21148;SDS011;10732;51.472;6.466;2024-02-26T10:09:02;6.55;;;5.30;;
21148;SDS011;10732;51.472;6.466;2024-02-26T10:11:31;5.35;;;4.50;;
21148;SDS011;10732;51.472;6.466;2024-02-26T10:13:57;5.30;;;4.45;;
21148;SDS011;10732;51.472;6.466;2024-02-26T10:16:23;4.72;;;4.30;;
21148;SDS011;10732;51.472;6.466;2024-02-26T10:18:50;5.75;;;4.70;;
21148;SDS011;10732;51.472;6.466;2024-02-26T10:21:19;5.93;;;4.88;;
21148;SDS011;10732;51.472;6.466;2024-02-26T10:23:45;5.05;;;4.47;;
21148;SDS011;10732;51.472;6.466;2024-02-26T10:26:12;5.97;;;4.20;;
21148;SDS011;10732;51.472;6.466;2024-02-26T10:28:39;4.93;;;4.18;;
21148;SDS011;10732;51.472;6.466;2024-02-26T10:31:05;5.63;;;4.40;;
21148;SDS011;10732;51.472;6.466;2024-02-26T10:33:40;4.70;;;4.15;;
21148;SDS011;10732;51.472;6.466;2024-02-26T10:36:07;5.85;;;4.32;;
21148;SDS011;10732;51.472;6.466;2024-02-26T10:38:34;6.65;;;4.40;;
21148;SDS011;10732;51.472;6.466;2024-02-26T10:41:04;5.03;;;4.53;;
21148;SDS011;10732;51.472;6.466;2024-02-26T10:43:31;4.90;;;4.40;;
21148;SDS011;10732;51.472;6.466;2024-02-26T10:45:57;5.57;;;4.55;;
21148;SDS011;10732;51.472;6.466;2024-02-26T10:48:22;5.22;;;4.72;;
21148;SDS011;10732;51.472;6.466;2024-02-26T10:50:48;9.00;;;7.20;;
21148;SDS011;10732;51.472;6.466;2024-02-26T10:53:16;5.05;;;4.55;;
21148;SDS011;10732;51.472;6.466;2024-02-26T10:55:45;5.97;;;4.75;;
21148;SDS011;10732;51.472;6.466;2024-02-26T10:58:14;6.57;;;4.43;;
21148;SDS011;10732;51.472;6.466;2024-02-26T11:00:42;6.30;;;4.75;;
21148;SDS011;10732;51.472;6.466;2024-02-26T11:03:08;5.18;;;4.43;;
21148;SDS011;10732;51.472;6.466;2024-02-26T11:05:35;5.07;;;4.30;;
21148;SDS011;10732;51.472;6.466;2024-02-26T11:08:02;5.78;;;4.80;;
21148;SDS011;10732;51.472;6.466;2024-02-26T11:10:29;5.20;;;4.70;;
21148;SDS011;10732;51.472;6.466;2024-02-26T11:12:55;5.05;;;4.45;;
21148;SDS011;10732;51.472;6.466;2024-02-26T11:15:24;6.18;;;4.85;;
21148;SDS011;10732;51.472;6.466;2024-02-26T11:17:51;8.23;;;5.60;;
21148;SDS011;10732;51.472;6.466;2024-02-26T11:20:19;5.53;;;5.03;;
21148;SDS011;10732;51.472;6.466;2024-02-26T11:22:45;6.55;;;5.68;;
21148;SDS011;10732;51.472;6.466;2024-02-26T11:25:10;6.13;;;5.53;;
21148;SDS011;10732;51.472;6.466;2024-02-26T11:27:42;9.95;;;6.70;;
21148;SDS011;10732;51.472;6.466;2024-02-26T11:30:10;7.65;;;6.57;;
21148;SDS011;10732;51.472;6.466;2024-02-26T11:32:38;9.80;;;7.18;;
21148;SDS011;10732;51.472;6.466;2024-02-26T11:35:04;8.40;;;6.47;;
21148;SDS011;10732;51.472;6.466;2024-02-26T11:37:30;7.75;;;6.78;;
21148;SDS011;10732;51.472;6.466;2024-02-26T11:39:58;8.63;;;6.90;;
21148;SDS011;10732;51.472;6.466;2024-02-26T11:42:25;8.20;;;7.30;;
21148;SDS011;10732;51.472;6.466;2024-02-26T11:44:51;8.27;;;7.25;;
21148;SDS011;10732;51.472;6.466;2024-02-26T11:47:21;10.88;;;7.72;;
21148;SDS011;10732;51.472;6.466;2024-02-26T11:49:47;10.18;;;8.23;;
21148;SDS011;10732;51.472;6.466;2024-02-26T11:52:14;11.73;;;7.93;;
21148;SDS011;10732;51.472;6.466;2024-02-26T11:54:44;9.63;;;6.63;;
21148;SDS011;10732;51.472;6.466;2024-02-26T11:57:26;10.90;;;7.65;;
21148;SDS011;10732;51.472;6.466;2024-02-26T11:59:55;12.10;;;7.53;;
21148;SDS011;10732;51.472;6.466;2024-02-26T12:02:51;8.50;;;7.70;;
21148;SDS011;10732;51.472;6.466;2024-02-26T12:05:23;9.05;;;7.57;;
21148;SDS011;10732;51.472;6.466;2024-02-26T12:13:04;9.55;;;7.70;;
21148;SDS011;10732;51.472;6.466;2024-02-26T12:15:33;10.02;;;8.13;;
21148;SDS011;10732;51.472;6.466;2024-02-26T12:18:02;11.23;;;8.32;;
21148;SDS011;10732;51.472;6.466;2024-02-26T12:20:29;10.05;;;8.50;;
21148;SDS011;10732;51.472;6.466;2024-02-26T12:22:55;11.73;;;8.30;;
21148;SDS011;10732;51.472;6.466;2024-02-26T12:25:23;10.52;;;8.45;;
21148;SDS011;10732;51.472;6.466;2024-02-26T12:27:53;12.50;;;9.48;;
21148;SDS011;10732;51.472;6.466;2024-02-26T12:30:19;12.20;;;8.70;;
21148;SDS011;10732;51.472;6.466;2024-02-26T12:32:45;11.88;;;8.68;;
21148;SDS011;10732;51.472;6.466;2024-02-26T12:35:15;11.15;;;8.02;;
21148;SDS011;10732;51.472;6.466;2024-02-26T12:37:42;12.70;;;9.30;;
21148;SDS011;10732;51.472;6.466;2024-02-26T12:40:08;10.40;;;8.48;;
21148;SDS011;10732;51.472;6.466;2024-02-26T12:42:35;10.98;;;8.30;;
21148;SDS011;10732;51.472;6.466;2024-02-26T12:45:06;10.93;;;8.52;;
21148;SDS011;10732;51.472;6.466;2024-02-26T12:47:40;10.82;;;9.15;;
21148;SDS011;10732;51.472;6.466;2024-02-26T12:50:08;11.63;;;8.10;;
21148;SDS011;10732;51.472;6.466;2024-02-26T12:52:35;13.23;;;8.38;;
21148;SDS011;10732;51.472;6.466;2024-02-26T12:55:05;12.10;;;8.25;;
21148;SDS011;10732;51.472;6.466;2024-02-26T12:57:35;13.75;;;9.43;;
21148;SDS011;10732;51.472;6.466;2024-02-26T13:00:03;11.10;;;8.60;;
21148;SDS011;10732;51.472;6.466;2024-02-26T13:02:36;10.82;;;8.85;;
21148;SDS011;10732;51.472;6.466;2024-02-26T13:05:03;12.05;;;8.40;;
21148;SDS011;10732;51.472;6.466;2024-02-26T13:07:31;11.77;;;8.50;;
21148;SDS011;10732;51.472;6.466;2024-02-26T13:09:58;9.52;;;8.23;;
21148;SDS011;10732;51.472;6.466;2024-02-26T13:12:23;9.65;;;7.32;;
21148;SDS011;10732;51.472;6.466;2024-02-26T13:14:59;10.95;;;8.13;;
21148;SDS011;10732;51.472;6.466;2024-02-26T13:17:26;9.93;;;7.30;;
21148;SDS011;10732;51.472;6.466;2024-02-26T13:19:53;11.52;;;7.93;;
21148;SDS011;10732;51.472;6.466;2024-02-26T13:22:22;9.98;;;7.70;;
21148;SDS011;10732;51.472;6.466;2024-02-26T13:24:58;10.57;;;8.02;;
21148;SDS011;10732;51.472;6.466;2024-02-26T13:27:25;11.23;;;7.65;;
21148;SDS011;10732;51.472;6.466;2024-02-26T13:32:31;11.73;;;7.57;;
21148;SDS011;10732;51.472;6.466;2024-02-26T13:35:11;8.10;;;6.15;;
21148;SDS011;10732;51.472;6.466;2024-02-26T13:37:37;7.85;;;6.97;;
21148;SDS011;10732;51.472;6.466;2024-02-26T13:40:04;8.68;;;6.50;;
21148;SDS011;10732;51.472;6.466;2024-02-26T13:42:31;8.75;;;6.00;;
21148;SDS011;10732;51.472;6.466;2024-02-26T13:44:59;8.05;;;6.43;;
21148;SDS011;10732;51.472;6.466;2024-02-26T13:47:25;9.32;;;6.63;;
21148;SDS011;10732;51.472;6.466;2024-02-26T13:49:51;8.88;;;5.75;;
21148;SDS011;10732;51.472;6.466;2024-02-26T13:52:17;8.70;;;5.63;;
21148;SDS011;10732;51.472;6.466;2024-02-26T13:54:42;7.40;;;5.47;;
21148;SDS011;10732;51.472;6.466;2024-02-26T13:57:08;8.70;;;5.97;;
21148;SDS011;10732;51.472;6.466;2024-02-26T13:59:34;8.65;;;6.15;;
21148;SDS011;10732;51.472;6.466;2024-02-26T14:02:00;9.55;;;6.22;;
21148;SDS011;10732;51.472;6.466;2024-02-26T14:04:25;8.10;;;6.80;;
21148;SDS011;10732;51.472;6.466;2024-02-26T14:06:51;7.22;;;5.90;;
21148;SDS011;10732;51.472;6.466;2024-02-26T14:09:16;6.68;;;5.78;;
21148;SDS011;10732;51.472;6.466;2024-02-26T14:11:47;6.95;;;5.60;;
21148;SDS011;10732;51.472;6.466;2024-02-26T14:14:13;7.20;;;5.25;;
21148;SDS011;10732;51.472;6.466;2024-02-26T14:16:38;7.72;;;5.75;;
21148;SDS011;10732;51.472;6.466;2024-02-26T14:19:04;6.65;;;5.80;;
21148;SDS011;10732;51.472;6.466;2024-02-26T14:21:29;7.68;;;5.60;;
21148;SDS011;10732;51.472;6.466;2024-02-26T14:23:55;6.32;;;5.60;;
21148;SDS011;10732;51.472;6.466;2024-02-26T14:26:24;8.00;;;5.55;;
21148;SDS011;10732;51.472;6.466;2024-02-26T14:28:50;9.02;;;6.10;;
21148;SDS011;10732;51.472;6.466;2024-02-26T14:31:18;7.63;;;6.20;;
21148;SDS011;10732;51.472;6.466;2024-02-26T14:33:44;8.57;;;6.10;;
21148;SDS011;10732;51.472;6.466;2024-02-26T14:36:09;9.40;;;6.43;;
21148;SDS011;10732;51.472;6.466;2024-02-26T14:38:36;6.60;;;5.80;;
21148;SDS011;10732;51.472;6.466;2024-02-26T14:41:02;7.20;;;5.85;;
21148;SDS011;10732;51.472;6.466;2024-02-26T14:43:29;9.73;;;6.85;;
21148;SDS011;10732;51.472;6.466;2024-02-26T14:45:55;8.93;;;6.97;;
21148;SDS011;10732;51.472;6.466;2024-02-26T14:48:22;10.75;;;7.80;;
21148;SDS011;10732;51.472;6.466;2024-02-26T14:50:48;8.93;;;8.02;;